createdAt,value
2017-11-15T00:02:17.513Z,11.6
2017-11-15T00:04:17.336Z,5.6
2017-11-15T00:06:18.195Z,7.5
2017-11-15T00:08:17.016Z,6.4
2017-11-15T00:10:17.828Z,12.5
2017-11-15T00:12:17.668Z,10.5
2017-11-15T00:14:17.499Z,8.8
2017-11-15T00:16:17.372Z,7.9
2017-11-15T00:18:18.170Z,9.5
2017-11-15T00:20:17.012Z,10.7
2017-11-15T00:22:16.813Z,11.7
2017-11-15T00:24:17.675Z,8.1
2017-11-15T00:26:17.491Z,7.8
2017-11-15T00:28:17.287Z,9.8
2017-11-15T00:30:21.104Z,9
2017-11-15T00:32:16.991Z,9.6
2017-11-15T00:34:17.762Z,8.1
2017-11-15T00:36:17.599Z,10.5
2017-11-15T00:38:17.435Z,10.6
2017-11-15T00:40:17.282Z,14.4
2017-11-15T00:42:17.095Z,10.8
2017-11-15T00:44:16.937Z,11.6
2017-11-15T00:46:17.794Z,8.3
2017-11-15T00:48:17.620Z,13.6
2017-11-15T00:50:21.402Z,7.7
2017-11-15T00:52:17.264Z,10.6
2017-11-15T00:54:21.056Z,8
2017-11-15T00:56:17.898Z,10.3
2017-11-15T00:58:17.726Z,9.4
2017-11-15T01:00:17.544Z,9.9
2017-11-15T01:02:17.381Z,15.3
2017-11-15T01:04:21.213Z,7.6
2017-11-15T01:06:17.055Z,8.3
2017-11-15T01:08:20.853Z,14.2
2017-11-15T01:10:17.679Z,9.8
2017-11-15T01:12:17.524Z,14.7
2017-11-15T01:14:17.319Z,6.9
2017-11-15T01:16:17.184Z,14.3
2017-11-15T01:18:17.995Z,11.7
2017-11-15T01:20:16.828Z,9.1
2017-11-15T01:22:17.686Z,17.8
2017-11-15T01:24:17.511Z,7
2017-11-15T01:26:17.330Z,14.9
2017-11-15T01:28:17.173Z,8.9
2017-11-15T01:30:20.957Z,7.3
2017-11-15T01:32:16.811Z,9.6
2017-11-15T01:34:17.630Z,9.7
2017-11-15T01:36:17.451Z,10.6
2017-11-15T01:38:17.282Z,8.7
2017-11-15T01:40:18.093Z,16.5
2017-11-15T01:42:16.919Z,13.2
2017-11-15T01:44:17.724Z,10.7
2017-11-15T01:46:17.561Z,9.2
2017-11-15T01:48:21.354Z,9.5
2017-11-15T01:50:17.192Z,10
2017-11-15T01:52:17.082Z,8.3
2017-11-15T01:54:20.867Z,13.4
2017-11-15T01:56:17.696Z,13.2
2017-11-15T01:58:17.537Z,10.3
2017-11-15T02:00:21.351Z,11.8
2017-11-15T02:02:17.219Z,11.5
2017-11-15T02:04:17.051Z,7.9
2017-11-15T02:06:17.899Z,12
2017-11-15T02:08:17.745Z,12.1
2017-11-15T02:10:17.576Z,9.6
2017-11-15T02:12:17.431Z,14.3
2017-11-15T02:14:17.270Z,8.6
2017-11-15T02:16:17.092Z,9.2
2017-11-15T02:18:17.909Z,11.2
2017-11-15T02:20:17.766Z,15.1
2017-11-15T02:22:17.621Z,8.3
2017-11-15T02:24:17.461Z,14.6
2017-11-15T02:26:17.313Z,12.1
2017-11-15T02:28:21.132Z,9.2
2017-11-15T02:30:16.975Z,9.2
2017-11-15T02:32:16.840Z,11.3
2017-11-15T02:34:21.608Z,9.5
2017-11-15T02:36:17.508Z,10.5
2017-11-15T02:38:21.320Z,8.8
2017-11-15T02:40:18.163Z,12.3
2017-11-15T02:42:17.020Z,13.7
2017-11-15T02:44:20.815Z,8.2
2017-11-15T02:46:21.636Z,9.5
2017-11-15T02:48:17.542Z,11.4
2017-11-15T02:50:21.341Z,12.7
2017-11-15T02:52:17.193Z,12.3
2017-11-15T02:54:17.375Z,13.8
2017-11-15T02:56:17.857Z,14.7
2017-11-15T02:58:17.710Z,13.5
2017-11-15T03:00:17.528Z,13.6
2017-11-15T03:02:17.348Z,19.4
2017-11-15T03:04:17.224Z,13.1
2017-11-15T03:06:17.061Z,16.6
2017-11-15T03:08:16.914Z,11.5
2017-11-15T03:10:17.757Z,14.6
2017-11-15T03:12:17.590Z,7.3
2017-11-15T03:14:17.407Z,9.8
2017-11-15T03:16:17.264Z,13.8
2017-11-15T03:18:18.091Z,11
2017-11-15T03:20:16.936Z,12.2
2017-11-15T03:22:16.773Z,13.1
2017-11-15T03:24:17.575Z,9.5
2017-11-15T03:26:17.458Z,12.6
2017-11-15T03:28:21.273Z,9.6
2017-11-15T03:30:21.040Z,16.4
2017-11-15T03:32:16.908Z,16.4
2017-11-15T03:34:17.734Z,11.9
2017-11-15T03:36:17.502Z,12.9
2017-11-15T03:38:17.315Z,12.7
2017-11-15T03:40:18.152Z,10.4
2017-11-15T03:42:16.972Z,10.7
2017-11-15T03:44:16.764Z,12.5
2017-11-15T03:46:17.618Z,13.8
2017-11-15T03:48:17.413Z,11
2017-11-15T03:50:21.249Z,12.2
2017-11-15T03:52:17.142Z,10.5
2017-11-15T03:54:16.940Z,13.1
2017-11-15T03:56:17.756Z,10.2
2017-11-15T03:58:17.645Z,12.9
2017-11-15T04:00:17.464Z,15.8
2017-11-15T04:02:17.285Z,10.5
2017-11-15T04:04:17.170Z,10.6
2017-11-15T04:06:17.981Z,14.7
2017-11-15T04:08:16.867Z,16.3
2017-11-15T04:10:17.691Z,13.5
2017-11-15T04:12:17.507Z,13.8
2017-11-15T04:14:17.378Z,10.8
2017-11-15T04:16:17.226Z,12.1
2017-11-15T04:18:18.076Z,16.9
2017-11-15T04:20:16.873Z,13.8
2017-11-15T04:22:17.730Z,13.4
2017-11-15T04:24:17.559Z,14.4
2017-11-15T04:26:18.376Z,13.3
2017-11-15T04:28:17.258Z,13.4
2017-11-15T04:30:17.068Z,15.3
2017-11-15T04:32:16.949Z,12.5
2017-11-15T04:34:16.753Z,20.8
2017-11-15T04:36:17.575Z,13.5
2017-11-15T04:38:17.402Z,11.3
2017-11-15T04:40:18.238Z,12.7
2017-11-15T04:42:17.061Z,14.9
2017-11-15T04:44:16.921Z,13.2
2017-11-15T04:46:17.723Z,13.8
2017-11-15T04:48:17.581Z,16.5
2017-11-15T04:50:21.392Z,16.7
2017-11-15T04:52:17.275Z,11.8
2017-11-15T04:54:17.094Z,11
2017-11-15T04:56:16.926Z,20.5
2017-11-15T04:58:17.779Z,18.1
2017-11-15T05:00:17.626Z,14.6
2017-11-15T05:02:17.487Z,13.6
2017-11-15T05:04:21.283Z,11.7
2017-11-15T05:06:17.123Z,16.6
2017-11-15T05:08:16.927Z,14.3
2017-11-15T05:10:17.755Z,14.6
2017-11-15T05:12:17.586Z,22.8
2017-11-15T05:14:17.432Z,15.5
2017-11-15T05:16:17.242Z,13.2
2017-11-15T05:18:17.121Z,16.5
2017-11-15T05:20:16.980Z,19.9
2017-11-15T05:22:16.771Z,16.2
2017-11-15T05:24:17.603Z,16.8
2017-11-15T05:26:17.436Z,15.7
2017-11-15T05:28:17.249Z,13.8
2017-11-15T05:30:17.081Z,12.4
2017-11-15T05:32:16.986Z,13.8
2017-11-15T05:34:20.768Z,13.1
2017-11-15T05:36:17.586Z,16.7
2017-11-15T05:38:17.466Z,18.2
2017-11-15T05:40:17.269Z,11.8
2017-11-15T05:42:17.114Z,16.8
2017-11-15T05:44:16.971Z,14
2017-11-15T05:46:17.795Z,15.1
2017-11-15T05:48:17.656Z,12.2
2017-11-15T05:50:17.452Z,15.5
2017-11-15T05:52:17.301Z,17.2
2017-11-15T05:54:17.146Z,12.2
2017-11-15T05:56:16.979Z,15.8
2017-11-15T05:58:16.801Z,14.2
2017-11-15T06:00:17.619Z,12.8
2017-11-15T06:02:17.455Z,11.9
2017-11-15T06:04:17.285Z,14.4
2017-11-15T06:06:18.117Z,15.4
2017-11-15T06:08:16.969Z,12.1
2017-11-15T06:10:17.855Z,14.9
2017-11-15T06:12:18.729Z,16.9
2017-11-15T06:14:18.439Z,16
2017-11-15T06:16:17.405Z,12.8
2017-11-15T06:18:18.203Z,13.5
2017-11-15T06:20:18.104Z,14.8
2017-11-15T06:22:17.865Z,13.7
2017-11-15T06:24:18.558Z,14.7
2017-11-15T06:26:18.408Z,12.7
2017-11-15T06:28:18.373Z,12.5
2017-11-15T06:30:18.043Z,15.5
2017-11-15T06:32:18.149Z,12.9
2017-11-15T06:34:17.874Z,17.1
2017-11-15T06:36:17.495Z,18.4
2017-11-15T06:38:17.336Z,12.5
2017-11-15T06:40:18.175Z,17.7
2017-11-15T06:42:16.994Z,17.1
2017-11-15T06:44:16.841Z,11.9
2017-11-15T06:46:17.650Z,14.4
2017-11-15T06:48:17.481Z,27.9
2017-11-15T06:50:17.314Z,24.1
2017-11-15T06:52:17.167Z,15.4
2017-11-15T06:54:16.999Z,13.8
2017-11-15T06:56:17.790Z,15
2017-11-15T06:58:17.639Z,11.9
2017-11-15T07:00:18.524Z,11.6
2017-11-15T07:02:17.322Z,13.7
2017-11-15T07:04:17.182Z,12.8
2017-11-15T07:06:17.050Z,14.7
2017-11-15T07:08:16.887Z,18.4
2017-11-15T07:10:17.746Z,18.7
2017-11-15T07:12:17.584Z,17.2
2017-11-15T07:14:17.375Z,17
2017-11-15T07:16:21.199Z,18.1
2017-11-15T07:18:17.105Z,10.4
2017-11-15T07:20:16.908Z,15.7
2017-11-15T07:22:17.754Z,12.8
2017-11-15T07:24:17.637Z,15.8
2017-11-15T07:26:17.503Z,14.8
2017-11-15T07:28:17.321Z,17.3
2017-11-15T07:30:18.227Z,15.7
2017-11-15T07:32:17.061Z,15.7
2017-11-15T07:34:16.884Z,15.6
2017-11-15T07:36:17.714Z,11.9
2017-11-15T07:38:17.540Z,11.2
2017-11-15T07:40:17.421Z,14
2017-11-15T07:42:17.289Z,14.7
2017-11-15T07:44:17.075Z,13.8
2017-11-15T07:46:17.946Z,12.5
2017-11-15T07:48:16.837Z,11.5
2017-11-15T07:50:17.649Z,13.9
2017-11-15T07:52:17.514Z,12.2
2017-11-15T07:54:17.390Z,12.9
2017-11-15T07:56:18.192Z,19.1
2017-11-15T07:58:17.071Z,12.5
2017-11-15T08:00:16.910Z,13.6
2017-11-15T08:02:17.752Z,14
2017-11-15T08:04:17.596Z,11.6
2017-11-15T08:06:17.434Z,13.2
2017-11-15T08:08:17.283Z,21.2
2017-11-15T08:10:18.168Z,9.5
2017-11-15T08:12:16.968Z,15.6
2017-11-15T08:14:16.868Z,12.8
2017-11-15T08:16:17.704Z,13.1
2017-11-15T08:18:18.525Z,11.1
2017-11-15T08:20:17.412Z,16.6
2017-11-15T08:22:17.290Z,20.6
2017-11-15T08:24:17.089Z,14.6
2017-11-15T08:26:17.963Z,10.8
2017-11-15T08:28:16.842Z,10.5
2017-11-15T08:30:17.671Z,12.3
2017-11-15T08:32:17.527Z,10.1
2017-11-15T08:34:17.417Z,12
2017-11-15T08:36:18.256Z,20.3
2017-11-15T08:38:17.103Z,12.5
2017-11-15T08:40:17.994Z,8.3
2017-11-15T08:42:16.860Z,8.8
2017-11-15T08:44:17.675Z,18.7
2017-11-15T08:46:17.598Z,9.8
2017-11-15T08:48:17.441Z,11.2
2017-11-15T08:50:17.313Z,8
2017-11-15T08:52:17.199Z,10
2017-11-15T08:54:17.031Z,14.4
2017-11-15T08:56:17.900Z,11.8
2017-11-15T08:58:17.804Z,11.2
2017-11-15T09:00:18.655Z,13.2
2017-11-15T09:02:17.531Z,14.3
2017-11-15T09:04:17.405Z,11.5
2017-11-15T09:06:18.227Z,15.7
2017-11-15T09:08:17.090Z,10.1
2017-11-15T09:10:17.950Z,10.8
2017-11-15T09:12:16.854Z,15.7
2017-11-15T09:14:17.662Z,10.3
2017-11-15T09:16:17.555Z,10.1
2017-11-15T09:18:21.438Z,11.8
2017-11-15T09:20:17.279Z,12.4
2017-11-15T09:22:17.168Z,15.4
2017-11-15T09:24:17.027Z,16.2
2017-11-15T09:26:17.886Z,16.5
2017-11-15T09:28:17.824Z,11.3
2017-11-15T09:30:17.656Z,21.5
2017-11-15T09:32:17.506Z,13.7
2017-11-15T09:34:17.428Z,11.8
2017-11-15T09:36:17.296Z,9.7
2017-11-15T09:38:17.150Z,8.6
2017-11-15T09:40:18.058Z,13.2
2017-11-15T09:42:16.934Z,13.1
2017-11-15T09:44:16.825Z,10.5
2017-11-15T09:46:17.724Z,15
2017-11-15T09:48:17.542Z,11.1
2017-11-15T09:50:17.431Z,10.1
2017-11-15T09:52:17.343Z,12
2017-11-15T09:54:17.222Z,14.6
2017-11-15T09:56:18.064Z,13.1
2017-11-15T09:58:16.962Z,11.3
2017-11-15T10:00:17.800Z,10
2017-11-15T10:02:17.685Z,11.1
2017-11-15T10:04:17.571Z,12.7
2017-11-15T10:06:17.419Z,12.3
2017-11-15T10:08:17.269Z,15.7
2017-11-15T10:10:18.125Z,10.3
2017-11-15T10:12:17.004Z,10.7
2017-11-15T10:14:16.877Z,10.7
2017-11-15T10:16:17.770Z,10.9
2017-11-15T10:18:18.610Z,7.8
2017-11-15T10:20:17.528Z,10.4
2017-11-15T10:22:17.411Z,13.8
2017-11-15T10:24:17.225Z,9
2017-11-15T10:26:18.105Z,7.3
2017-11-15T10:28:17.001Z,15.4
2017-11-15T10:30:16.848Z,10.6
2017-11-15T10:32:17.726Z,9
2017-11-15T10:36:17.476Z,7.7
2017-11-15T10:38:17.306Z,6.7
2017-11-15T10:40:18.231Z,8.7
2017-11-15T10:42:17.057Z,4.5
2017-11-15T10:44:16.941Z,7.7
2017-11-15T10:46:17.833Z,10.4
2017-11-15T10:48:17.705Z,8.8
2017-11-15T10:50:17.586Z,9.5
2017-11-15T10:52:17.512Z,6.8
2017-11-15T10:54:17.326Z,5.9
2017-11-15T10:56:17.196Z,10.5
2017-11-15T10:58:17.083Z,11.7
2017-11-15T11:00:16.900Z,10.5
2017-11-15T11:02:17.815Z,10.9
2017-11-15T11:04:17.689Z,8.1
2017-11-15T11:06:17.537Z,6
2017-11-15T11:08:17.476Z,12.3
2017-11-15T11:10:17.324Z,8.3
2017-11-15T11:12:17.171Z,5.8
2017-11-15T11:14:17.108Z,10.4
2017-11-15T11:16:16.956Z,7.6
2017-11-15T11:18:16.849Z,6.5
2017-11-15T11:20:17.726Z,10.5
2017-11-15T11:22:17.597Z,8.3
2017-11-15T11:24:17.549Z,5.8
2017-11-15T11:26:17.371Z,8.7
2017-11-15T11:28:17.275Z,9.9
2017-11-15T11:30:17.165Z,8.9
2017-11-15T11:32:17.095Z,11.9
2017-11-15T11:34:16.916Z,13.4
2017-11-15T11:36:17.788Z,10.2
2017-11-15T11:38:17.715Z,12.7
2017-11-15T11:40:17.622Z,11.8
2017-11-15T11:42:17.455Z,7.9
2017-11-15T11:44:17.342Z,10.6
2017-11-15T11:46:18.188Z,4.2
2017-11-15T11:48:17.114Z,6
2017-11-15T11:50:16.991Z,8.5
2017-11-15T11:52:16.855Z,11.8
2017-11-15T11:54:17.746Z,10.5
2017-11-15T11:56:17.622Z,8.4
2017-11-15T11:58:17.556Z,10.5
2017-11-15T12:00:17.407Z,12.7
2017-11-15T12:02:17.324Z,8.7
2017-11-15T12:04:17.171Z,8.6
2017-11-15T12:06:18.037Z,8.6
2017-11-15T12:08:16.975Z,8.6
2017-11-15T12:10:17.799Z,7.5
2017-11-15T12:12:17.728Z,9.5
2017-11-15T12:14:17.577Z,10.4
2017-11-15T12:16:17.425Z,6.7
2017-11-15T12:18:17.337Z,11
2017-11-15T12:20:17.220Z,13.3
2017-11-15T12:22:17.113Z,12.6
2017-11-15T12:24:16.999Z,10.1
2017-11-15T12:26:17.955Z,16.4
2017-11-15T12:28:16.837Z,14.7
2017-11-15T12:30:17.701Z,10
2017-11-15T12:32:17.642Z,9.2
2017-11-15T12:34:17.467Z,14.7
2017-11-15T12:36:17.364Z,10.9
2017-11-15T12:38:17.282Z,11.9
2017-11-15T12:40:18.132Z,14.4
2017-11-15T12:42:17.018Z,12.6
2017-11-15T12:44:16.951Z,15.4
2017-11-15T12:46:17.800Z,8.9
2017-11-15T12:48:17.696Z,14.9
2017-11-15T12:50:17.546Z,11.9
2017-11-15T12:52:17.443Z,9.9
2017-11-15T12:54:17.321Z,9.5
2017-11-15T12:56:17.199Z,11.2
2017-11-15T12:58:17.109Z,5.1
2017-11-15T13:00:16.998Z,9.3
2017-11-15T13:02:16.907Z,7.5
2017-11-15T13:04:17.744Z,8.2
2017-11-15T13:06:17.609Z,10.1
2017-11-15T13:08:17.502Z,6.8
2017-11-15T13:10:17.356Z,11
2017-11-15T13:12:17.233Z,8.6
2017-11-15T13:14:17.168Z,7
2017-11-15T13:16:18.028Z,8.3
2017-11-15T13:18:17.888Z,8.1
2017-11-15T13:20:17.742Z,8.9
2017-11-15T13:22:17.659Z,11.3
2017-11-15T13:24:17.507Z,5
2017-11-15T13:26:17.426Z,7.4
2017-11-15T13:28:17.263Z,6.3
2017-11-15T13:30:17.155Z,6.6
2017-11-15T13:32:17.069Z,7.5
2017-11-15T13:34:16.937Z,9.2
2017-11-15T13:36:17.815Z,5.1
2017-11-15T13:38:17.756Z,6.6
2017-11-15T13:40:17.609Z,7.4
2017-11-15T13:42:17.485Z,5.9
2017-11-15T13:44:17.421Z,10
2017-11-15T13:46:18.262Z,3.7
2017-11-15T13:48:17.200Z,5.4
2017-11-15T13:50:17.041Z,7.5
2017-11-15T13:52:16.945Z,6.9
2017-11-15T13:54:16.813Z,4.1
2017-11-15T13:56:17.680Z,6.6
2017-11-15T13:58:17.557Z,5.4
2017-11-15T14:00:17.407Z,3.8
2017-11-15T14:02:17.334Z,5
2017-11-15T14:04:17.251Z,4.9
2017-11-15T14:06:17.054Z,8.4
2017-11-15T14:08:16.996Z,4.3
2017-11-15T14:10:17.842Z,5.9
2017-11-15T14:12:17.758Z,6
2017-11-15T14:14:17.657Z,5.5
2017-11-15T14:16:17.499Z,12.8
2017-11-15T14:18:17.406Z,6.4
2017-11-15T14:20:17.321Z,5.4
2017-11-15T14:22:17.193Z,7.1
2017-11-15T14:24:17.071Z,6.2
2017-11-15T14:26:17.969Z,5.5
2017-11-15T14:28:16.844Z,4.9
2017-11-15T14:30:17.722Z,7.6
2017-11-15T14:32:17.633Z,6.4
2017-11-15T14:34:17.489Z,7.5
2017-11-15T14:36:17.384Z,7
2017-11-15T14:38:17.300Z,7.6
2017-11-15T14:40:18.147Z,5.7
2017-11-15T14:42:17.067Z,5.1
2017-11-15T14:44:17.003Z,5.2
2017-11-15T14:46:17.872Z,4.7
2017-11-15T14:48:17.764Z,6.5
2017-11-15T14:50:17.671Z,4.4
2017-11-15T14:52:17.569Z,3.9
2017-11-15T14:54:17.448Z,11.1
2017-11-15T14:56:18.365Z,4.4
2017-11-15T14:58:17.204Z,6.6
2017-11-15T15:00:17.095Z,3.6
2017-11-15T15:02:17.038Z,7.6
2017-11-15T15:04:20.817Z,5.4
2017-11-15T15:06:17.711Z,5.2
2017-11-15T15:08:17.617Z,8
2017-11-15T15:10:17.476Z,6.8
2017-11-15T15:12:17.363Z,9.1
2017-11-15T15:14:17.262Z,6.1
2017-11-15T15:16:18.113Z,8.9
2017-11-15T15:18:17.010Z,3.7
2017-11-15T15:20:16.936Z,6.1
2017-11-15T15:22:16.790Z,6.7
2017-11-15T15:24:17.698Z,5.7
2017-11-15T15:26:17.590Z,6.6
2017-11-15T15:28:17.426Z,8.4
2017-11-15T15:30:17.297Z,5.9
2017-11-15T15:32:17.213Z,6.2
2017-11-15T15:34:17.066Z,7.5
2017-11-15T15:36:17.967Z,4.9
2017-11-15T15:38:16.888Z,5
2017-11-15T15:40:17.720Z,8.1
2017-11-15T15:42:17.596Z,6.7
2017-11-15T15:44:17.514Z,9.2
2017-11-15T15:46:17.336Z,6.2
2017-11-15T15:48:17.200Z,6.9
2017-11-15T15:50:17.097Z,12.7
2017-11-15T15:52:16.980Z,8.4
2017-11-15T15:54:16.868Z,4.9
2017-11-15T15:56:17.802Z,5.7
2017-11-15T15:58:17.649Z,6.8
2017-11-15T16:00:17.534Z,5.4
2017-11-15T16:02:17.467Z,5.4
2017-11-15T16:04:17.310Z,5.6
2017-11-15T16:06:18.208Z,5.6
2017-11-15T16:08:17.114Z,6.1
2017-11-15T16:10:17.982Z,10.7
2017-11-15T16:12:16.881Z,6.7
2017-11-15T16:14:17.759Z,6.3
2017-11-15T16:16:17.637Z,7.8
2017-11-15T16:18:17.545Z,5
2017-11-15T16:20:17.428Z,6.4
2017-11-15T16:22:17.345Z,5.6
2017-11-15T16:24:17.190Z,4.7
2017-11-15T16:26:18.089Z,7.8
2017-11-15T16:28:17.007Z,9.4
2017-11-15T16:30:16.860Z,8.9
2017-11-15T16:32:17.786Z,7.5
2017-11-15T16:34:17.623Z,6.4
2017-11-15T16:36:18.508Z,7.5
2017-11-15T16:38:17.400Z,8.2
2017-11-15T16:40:17.267Z,8.3
2017-11-15T16:42:17.185Z,7.1
2017-11-15T16:44:17.061Z,8.2
2017-11-15T16:46:17.887Z,8
2017-11-15T16:48:17.791Z,5.5
2017-11-15T16:50:17.663Z,9.8
2017-11-15T16:52:17.517Z,6.6
2017-11-15T16:54:17.408Z,5
2017-11-15T16:56:17.290Z,9.6
2017-11-15T16:58:17.187Z,8.6
2017-11-15T17:00:17.031Z,8.2
2017-11-15T17:04:17.807Z,8.5
2017-11-15T17:06:17.634Z,11
2017-11-15T17:08:17.500Z,7.8
2017-11-15T17:10:17.413Z,11.4
2017-11-15T17:12:17.269Z,7.5
2017-11-15T17:14:17.150Z,8.3
2017-11-15T17:16:18.060Z,11.4
2017-11-15T17:18:20.877Z,8.9
2017-11-15T17:20:17.782Z,8.4
2017-11-15T17:22:17.682Z,8.8
2017-11-15T17:24:17.531Z,12.3
2017-11-15T17:26:18.413Z,9.6
2017-11-15T17:28:17.364Z,8.1
2017-11-15T17:30:18.185Z,9.8
2017-11-15T17:32:17.058Z,10.8
2017-11-15T17:34:16.972Z,7
2017-11-15T17:36:17.826Z,7.7
2017-11-15T17:38:17.713Z,9.4
2017-11-15T17:40:17.568Z,7.4
2017-11-15T17:42:17.440Z,10.6
2017-11-15T17:44:17.349Z,16.5
2017-11-15T17:46:18.255Z,8.9
2017-11-15T17:48:17.129Z,8
2017-11-15T17:50:16.996Z,14.2
2017-11-15T17:52:16.907Z,9.7
2017-11-15T17:54:17.759Z,11
2017-11-15T17:56:17.669Z,11.6
2017-11-15T17:58:17.556Z,12.4
2017-11-15T18:00:17.454Z,13.6
2017-11-15T18:02:17.337Z,10.4
2017-11-15T18:04:17.235Z,9.1
2017-11-15T18:06:18.076Z,14.1
2017-11-15T18:08:16.962Z,10
2017-11-15T18:10:17.847Z,13.5
2017-11-15T18:12:17.723Z,13.6
2017-11-15T18:14:17.601Z,13.3
2017-11-15T18:16:17.457Z,10
2017-11-15T18:18:17.364Z,17.1
2017-11-15T18:20:17.222Z,11.2
2017-11-15T18:22:17.157Z,12.1
2017-11-15T18:24:17.001Z,9.4
2017-11-15T18:26:17.876Z,11.1
2017-11-15T18:28:17.808Z,12
2017-11-15T18:30:21.679Z,12.3
2017-11-15T18:32:17.574Z,10.1
2017-11-15T18:34:17.492Z,11.1
2017-11-15T18:36:17.364Z,13.5
2017-11-15T18:38:17.219Z,10.6
2017-11-15T18:40:18.116Z,9.8
2017-11-15T18:42:16.957Z,11.1
2017-11-15T18:44:16.846Z,10.7
2017-11-15T18:46:17.705Z,15.6
2017-11-15T18:48:17.581Z,12.8
2017-11-15T18:50:17.528Z,14.2
2017-11-15T18:52:17.357Z,15.5
2017-11-15T18:54:17.286Z,16.6
2017-11-15T18:56:17.167Z,14.4
2017-11-15T18:58:17.027Z,13.4
2017-11-15T19:00:16.914Z,11.3
2017-11-15T19:02:17.826Z,14.6
2017-11-15T19:04:17.687Z,19.1
2017-11-15T19:06:17.551Z,18.2
2017-11-15T19:08:17.480Z,17.5
2017-11-15T19:10:17.342Z,12.6
2017-11-15T19:12:17.225Z,14.4
2017-11-15T19:14:17.151Z,16.1
2017-11-15T19:16:17.965Z,13.1
2017-11-15T19:18:16.834Z,16.6
2017-11-15T19:20:17.740Z,16.4
2017-11-15T19:22:17.554Z,19.7
2017-11-15T19:24:17.390Z,13.5
2017-11-15T19:26:18.314Z,15.4
2017-11-15T19:28:17.193Z,18.2
2017-11-15T19:30:17.010Z,17.4
2017-11-15T19:32:16.925Z,15.8
2017-11-15T19:34:17.779Z,13.1
2017-11-15T19:36:17.658Z,17.5
2017-11-15T19:38:17.529Z,19.9
2017-11-15T19:40:17.349Z,17
2017-11-15T19:42:17.253Z,19.3
2017-11-15T19:44:17.142Z,18.7
2017-11-15T19:46:17.981Z,19
2017-11-15T19:48:16.847Z,22.5
2017-11-15T19:52:17.626Z,19.8
2017-11-15T19:54:17.482Z,19.9
2017-11-15T19:56:17.381Z,20.2
2017-11-15T19:58:17.228Z,19.6
2017-11-15T20:00:17.096Z,17.1
2017-11-15T20:02:17.027Z,20.8
2017-11-15T20:04:16.840Z,20.6
2017-11-15T20:06:17.714Z,19.1
2017-11-15T20:08:17.596Z,29.4
2017-11-15T20:10:17.437Z,20.3
2017-11-15T20:12:17.326Z,27.3
2017-11-15T20:14:17.203Z,21.9
2017-11-15T20:16:18.043Z,19.3
2017-11-15T20:18:17.907Z,20.5
2017-11-15T20:20:17.815Z,22.8
2017-11-15T20:22:17.666Z,21.3
2017-11-15T20:24:17.524Z,24.1
2017-11-15T20:26:17.399Z,24.6
2017-11-15T20:28:17.251Z,24.6
2017-11-15T20:30:17.151Z,23.1
2017-11-15T20:32:17.057Z,22.4
2017-11-15T20:34:16.857Z,21.8
2017-11-15T20:36:17.770Z,25.1
2017-11-15T20:38:17.653Z,30.1
2017-11-15T20:40:17.495Z,30
2017-11-15T20:42:17.379Z,29.4
2017-11-15T20:44:17.276Z,24.4
2017-11-15T20:46:17.115Z,27.3
2017-11-15T20:48:17.026Z,24
2017-11-15T20:50:16.939Z,30.5
2017-11-15T20:52:16.751Z,27.5
2017-11-15T20:54:17.645Z,28.6
2017-11-15T20:56:17.589Z,25.6
2017-11-15T20:58:17.442Z,34.3
2017-11-15T21:00:17.313Z,28.7
2017-11-15T21:02:17.229Z,29.1
2017-11-15T21:04:17.079Z,31.7
2017-11-15T21:06:17.978Z,33.3
2017-11-15T21:08:16.862Z,30.4
2017-11-15T21:10:17.724Z,32.8
2017-11-15T21:12:17.616Z,36.3
2017-11-15T21:14:17.550Z,30.6
2017-11-15T21:16:17.385Z,28.8
2017-11-15T21:18:17.305Z,29.5
2017-11-15T21:20:17.205Z,35.4
2017-11-15T21:22:17.057Z,32.2
2017-11-15T21:24:16.940Z,32.7
2017-11-15T21:26:16.827Z,38.2
2017-11-15T21:28:17.716Z,31.6
2017-11-15T21:30:17.594Z,32.1
2017-11-15T21:32:17.519Z,32.5
2017-11-15T21:34:17.405Z,32.7
2017-11-15T21:36:18.271Z,37.2
2017-11-15T21:38:17.208Z,33.3
2017-11-15T21:40:18.049Z,33.7
2017-11-15T21:42:16.980Z,39.9
2017-11-15T21:44:16.869Z,36.7
2017-11-15T21:46:17.702Z,37.8
2017-11-15T21:48:17.586Z,37.3
2017-11-15T21:50:17.499Z,36.2
2017-11-15T21:52:17.381Z,34.8
2017-11-15T21:54:17.282Z,34.3
2017-11-15T21:56:17.185Z,33.7
2017-11-15T21:58:17.088Z,41.8
2017-11-15T22:00:17.937Z,37.2
2017-11-15T22:02:16.874Z,39.7
2017-11-15T22:04:17.727Z,38.5
2017-11-15T22:06:17.624Z,39.1
2017-11-15T22:08:17.565Z,36.1
2017-11-15T22:10:17.448Z,39
2017-11-15T22:12:17.313Z,38.9
2017-11-15T22:14:17.251Z,39.6
2017-11-15T22:16:18.124Z,39.9
2017-11-15T22:18:17.023Z,35.6
2017-11-15T22:20:16.918Z,36.7
2017-11-15T22:22:17.821Z,39.7
2017-11-15T22:24:17.701Z,34.7
2017-11-15T22:26:17.693Z,41.9
2017-11-15T22:28:17.501Z,38.8
2017-11-15T22:30:17.429Z,46.6
2017-11-15T22:32:17.292Z,39.3
2017-11-15T22:34:17.177Z,42.7
2017-11-15T22:36:18.081Z,36
2017-11-15T22:40:17.829Z,36.5
2017-11-15T22:42:17.756Z,35.8
2017-11-15T22:44:17.643Z,37.3
2017-11-15T22:46:17.549Z,35
2017-11-15T22:48:17.441Z,39.7
2017-11-15T22:50:17.254Z,37.8
2017-11-15T22:52:17.150Z,39.1
2017-11-15T22:54:17.067Z,35.6
2017-11-15T22:56:17.919Z,40.4
2017-11-15T22:58:17.799Z,35.1
2017-11-15T23:00:17.661Z,34.7
2017-11-15T23:02:17.609Z,43.7
2017-11-15T23:04:17.454Z,42.5
2017-11-15T23:06:18.367Z,46.9
2017-11-15T23:08:17.231Z,45.1
2017-11-15T23:10:18.166Z,40.6
2017-11-15T23:12:17.019Z,46.3
2017-11-15T23:14:16.926Z,42.5
2017-11-15T23:16:17.816Z,44.5
2017-11-15T23:18:18.676Z,43.6
2017-11-15T23:20:17.537Z,50.6
2017-11-15T23:22:17.449Z,43.5
2017-11-15T23:24:17.325Z,39.3
2017-11-15T23:26:17.229Z,40.9
2017-11-15T23:28:17.097Z,41.8
2017-11-15T23:32:17.881Z,39.7
2017-11-15T23:34:17.781Z,48.4
2017-11-15T23:36:17.671Z,46.2
2017-11-15T23:38:17.552Z,40
2017-11-15T23:40:17.445Z,43.4
2017-11-15T23:42:17.346Z,42.9
2017-11-15T23:44:17.249Z,40.1
2017-11-15T23:46:18.142Z,44
2017-11-15T23:48:17.028Z,43.3
2017-11-15T23:50:16.924Z,47.7
2017-11-15T23:52:17.832Z,39.1
2017-11-15T23:54:17.678Z,46.4
2017-11-15T23:56:17.574Z,42.5
2017-11-15T23:58:17.497Z,42.5
